Time;durP1;ratioP1;P1;durP2;ratioP2;P2;SDS_P1;SDS_P2;PMS_P1;PMS_P2;Temp;Humidity;BMP_temperature;BMP_pressure;BME280_temperature;BME280_humidity;BME280_pressure;Samples;Min_cycle;Max_cycle;Signal;HPM_P1;HPM_P2
2021/12/11 00:02:09;;;;;;;25.80;12.68;;;;;;;;;;5068497;28;20565;-70
2021/12/11 00:04:37;;;;;;;29.40;11.73;;;;;;;;;;5070049;28;20059;-71
2021/12/11 00:07:06;;;;;;;25.30;12.90;;;;;;;;;;5069062;28;20057;-71
2021/12/11 00:09:35;;;;;;;26.98;12.23;;;;;;;;;;5069531;28;20056;-71
2021/12/11 00:12:05;;;;;;;27.45;12.65;;;;;;;;;;5069838;28;20572;-71
2021/12/11 00:14:34;;;;;;;31.45;12.40;;;;;;;;;;5069030;28;20171;-71
2021/12/11 00:17:00;;;;;;;29.27;11.85;;;;;;;;;;5069225;28;20051;-71
2021/12/11 00:19:28;;;;;;;30.80;12.43;;;;;;;;;;5069057;28;20057;-71
2021/12/11 00:22:01;;;;;;;22.75;11.38;;;;;;;;;;5069840;28;20059;-71
2021/12/11 00:24:30;;;;;;;29.20;12.73;;;;;;;;;;5068739;28;20053;-71
2021/12/11 00:26:58;;;;;;;27.85;12.15;;;;;;;;;;5069063;28;20057;-72
2021/12/11 00:29:25;;;;;;;26.45;11.75;;;;;;;;;;5068923;28;20053;-71
2021/12/11 00:31:57;;;;;;;21.25;11.82;;;;;;;;;;5069558;28;20060;-70
2021/12/11 00:34:24;;;;;;;25.73;12.45;;;;;;;;;;5068901;28;20060;-71
2021/12/11 00:37:02;;;;;;;20.33;11.35;;;;;;;;;;5069170;28;20045;-71
2021/12/11 00:39:30;;;;;;;24.48;10.73;;;;;;;;;;5069730;28;20446;-71
2021/12/11 00:42:00;;;;;;;24.70;11.80;;;;;;;;;;5068283;28;20495;-71
2021/12/11 00:44:35;;;;;;;22.67;11.23;;;;;;;;;;5069221;28;20136;-71
2021/12/11 00:47:05;;;;;;;19.55;10.75;;;;;;;;;;5068677;28;20196;-71
2021/12/11 00:49:32;;;;;;;23.77;11.43;;;;;;;;;;5069354;28;20107;-71
2021/12/11 00:51:59;;;;;;;27.98;11.90;;;;;;;;;;5068609;28;20057;-71
2021/12/11 00:54:25;;;;;;;28.10;11.57;;;;;;;;;;5069109;28;20059;-71
2021/12/11 00:56:51;;;;;;;25.65;12.02;;;;;;;;;;5069276;28;20064;-71
2021/12/11 00:59:20;;;;;;;23.20;11.40;;;;;;;;;;5068498;28;20057;-71
2021/12/11 01:01:53;;;;;;;30.63;12.38;;;;;;;;;;5067509;28;20053;-71
2021/12/11 01:04:22;;;;;;;23.80;10.93;;;;;;;;;;5068819;28;20049;-72
2021/12/11 01:06:49;;;;;;;23.90;11.63;;;;;;;;;;5068428;28;20606;-70
2021/12/11 01:09:18;;;;;;;21.92;11.60;;;;;;;;;;5068653;28;20059;-71
2021/12/11 01:11:47;;;;;;;25.58;11.98;;;;;;;;;;5069004;28;20083;-71
2021/12/11 01:14:34;;;;;;;28.20;11.90;;;;;;;;;;5067850;28;20495;-71
2021/12/11 01:17:11;;;;;;;28.05;12.82;;;;;;;;;;5068771;28;20141;-71
2021/12/11 01:19:40;;;;;;;26.02;11.50;;;;;;;;;;5068748;28;20581;-71
2021/12/11 01:22:20;;;;;;;22.13;10.80;;;;;;;;;;5068579;28;20053;-71
2021/12/11 01:24:48;;;;;;;24.17;11.43;;;;;;;;;;5068558;28;20079;-71
2021/12/11 01:27:16;;;;;;;26.80;11.77;;;;;;;;;;5068282;28;20049;-71
2021/12/11 01:29:43;;;;;;;30.23;13.25;;;;;;;;;;5068326;28;20145;-71
2021/12/11 01:32:11;;;;;;;24.77;12.20;;;;;;;;;;5068296;28;20504;-71
2021/12/11 01:34:37;;;;;;;24.35;11.38;;;;;;;;;;5067643;28;20055;-71
2021/12/11 01:37:04;;;;;;;25.00;12.18;;;;;;;;;;5068684;28;20152;-71
2021/12/11 01:39:32;;;;;;;23.30;11.50;;;;;;;;;;5068787;28;20071;-71
2021/12/11 01:42:00;;;;;;;26.02;12.25;;;;;;;;;;5067921;28;20624;-71
2021/12/11 01:44:30;;;;;;;24.58;12.27;;;;;;;;;;5068297;28;20055;-71
2021/12/11 01:47:02;;;;;;;24.00;11.40;;;;;;;;;;5068598;28;20057;-71
2021/12/11 01:49:29;;;;;;;24.30;12.20;;;;;;;;;;5068603;28;20136;-71
2021/12/11 01:51:59;;;;;;;27.73;13.30;;;;;;;;;;5068021;28;20061;-71
2021/12/11 01:54:29;;;;;;;26.27;13.18;;;;;;;;;;5068727;28;20053;-71
2021/12/11 01:57:00;;;;;;;24.92;12.73;;;;;;;;;;5067184;28;20053;-71
2021/12/11 01:59:31;;;;;;;26.23;12.63;;;;;;;;;;5068290;28;20048;-71
2021/12/11 02:02:02;;;;;;;25.55;12.15;;;;;;;;;;5068231;28;20056;-71
2021/12/11 02:04:29;;;;;;;26.02;12.43;;;;;;;;;;5067843;28;20140;-71
2021/12/11 02:07:00;;;;;;;26.95;12.35;;;;;;;;;;5068143;28;20053;-71
2021/12/11 02:09:28;;;;;;;32.88;14.15;;;;;;;;;;5068276;28;20487;-71
2021/12/11 02:12:04;;;;;;;26.73;13.45;;;;;;;;;;5068346;28;20142;-71
2021/12/11 02:14:37;;;;;;;25.42;13.07;;;;;;;;;;5067616;28;20053;-71
2021/12/11 02:17:04;;;;;;;24.38;12.43;;;;;;;;;;5067893;28;20063;-71
2021/12/11 02:19:33;;;;;;;22.73;13.40;;;;;;;;;;5067720;28;20065;-71
2021/12/11 02:21:59;;;;;;;27.27;13.02;;;;;;;;;;5066987;28;20053;-71
2021/12/11 02:24:31;;;;;;;22.58;11.48;;;;;;;;;;5069864;28;20048;-71
2021/12/11 02:26:58;;;;;;;24.23;12.25;;;;;;;;;;5070894;28;20191;-71
2021/12/11 02:29:28;;;;;;;25.80;13.05;;;;;;;;;;5070554;28;20151;-71
2021/12/11 02:31:59;;;;;;;21.90;12.60;;;;;;;;;;5071295;28;20085;-71
2021/12/11 02:34:34;;;;;;;23.05;12.38;;;;;;;;;;5071548;28;20079;-71
2021/12/11 02:37:21;;;;;;;24.70;11.98;;;;;;;;;;5070893;28;20503;-71
2021/12/11 02:40:10;;;;;;;27.80;11.95;;;;;;;;;;5071105;28;20136;-71
2021/12/11 02:42:43;;;;;;;25.38;12.88;;;;;;;;;;5070438;28;20083;-71
2021/12/11 02:45:28;;;;;;;21.58;11.57;;;;;;;;;;5071171;28;20049;-71
2021/12/11 02:48:08;;;;;;;23.98;11.80;;;;;;;;;;5069318;28;20056;-71
2021/12/11 02:50:37;;;;;;;23.15;12.13;;;;;;;;;;5071311;28;20056;-71
2021/12/11 02:53:15;;;;;;;29.90;12.23;;;;;;;;;;5070533;28;20578;-71
2021/12/11 02:56:02;;;;;;;21.13;12.18;;;;;;;;;;5070167;28;20057;-71
2021/12/11 02:58:32;;;;;;;24.60;11.38;;;;;;;;;;5070290;28;20055;-71
2021/12/11 03:01:21;;;;;;;27.00;12.20;;;;;;;;;;5070824;28;20061;-71
2021/12/11 03:03:54;;;;;;;22.67;11.60;;;;;;;;;;5070431;28;20056;-71
2021/12/11 03:06:24;;;;;;;26.77;12.18;;;;;;;;;;5070887;28;20085;-71
2021/12/11 03:08:52;;;;;;;23.30;11.77;;;;;;;;;;5070949;28;20499;-71
2021/12/11 03:11:20;;;;;;;22.95;11.25;;;;;;;;;;5070642;28;20672;-71
2021/12/11 03:13:50;;;;;;;26.58;12.10;;;;;;;;;;5069896;28;20049;-71
2021/12/11 03:16:22;;;;;;;27.25;12.27;;;;;;;;;;5070650;28;20060;-71
2021/12/11 03:18:48;;;;;;;25.50;12.30;;;;;;;;;;5070948;28;20085;-71
2021/12/11 03:21:15;;;;;;;26.45;12.38;;;;;;;;;;5070227;28;20053;-71
2021/12/11 03:23:42;;;;;;;24.88;11.73;;;;;;;;;;5070416;28;20067;-71
2021/12/11 03:26:08;;;;;;;28.92;12.73;;;;;;;;;;5069526;28;20044;-71
2021/12/11 03:28:35;;;;;;;21.38;11.70;;;;;;;;;;5069762;28;20435;-71
2021/12/11 03:31:02;;;;;;;24.55;13.15;;;;;;;;;;5070782;28;20075;-71
2021/12/11 03:33:31;;;;;;;29.10;12.30;;;;;;;;;;5069304;28;20893;-71
2021/12/11 03:35:58;;;;;;;23.60;11.93;;;;;;;;;;5070051;28;20575;-71
2021/12/11 03:38:25;;;;;;;26.02;13.13;;;;;;;;;;5069081;28;20965;-71
2021/12/11 03:40:51;;;;;;;24.63;13.25;;;;;;;;;;5070507;28;20152;-71
2021/12/11 03:43:19;;;;;;;23.33;12.57;;;;;;;;;;5070162;28;20060;-72
2021/12/11 03:45:47;;;;;;;23.60;12.50;;;;;;;;;;5069536;28;20585;-71
2021/12/11 03:48:15;;;;;;;24.38;12.45;;;;;;;;;;5070355;28;20272;-71
2021/12/11 03:50:42;;;;;;;22.13;12.63;;;;;;;;;;5069537;28;20144;-71
2021/12/11 03:53:09;;;;;;;24.05;11.68;;;;;;;;;;5070250;28;20515;-71
2021/12/11 03:55:43;;;;;;;30.77;12.50;;;;;;;;;;5070020;28;20057;-71
2021/12/11 03:58:09;;;;;;;23.17;12.10;;;;;;;;;;5069090;28;20487;-71
2021/12/11 04:00:39;;;;;;;26.02;13.15;;;;;;;;;;5069706;28;20053;-71
2021/12/11 04:03:07;;;;;;;29.55;14.10;;;;;;;;;;5069302;28;20049;-71
2021/12/11 04:05:34;;;;;;;30.63;14.55;;;;;;;;;;5069976;28;20055;-71
2021/12/11 04:08:01;;;;;;;34.55;14.23;;;;;;;;;;5069898;28;20053;-71
2021/12/11 04:10:27;;;;;;;26.48;13.63;;;;;;;;;;5069002;28;20144;-71
2021/12/11 04:13:13;;;;;;;29.38;14.85;;;;;;;;;;5069313;28;20076;-71
2021/12/11 04:15:41;;;;;;;29.05;14.00;;;;;;;;;;5069967;28;20049;-72
2021/12/11 04:18:07;;;;;;;35.55;15.13;;;;;;;;;;5068555;28;20057;-71
2021/12/11 04:20:37;;;;;;;32.00;15.15;;;;;;;;;;5069501;28;20057;-71
2021/12/11 04:23:04;;;;;;;29.88;15.45;;;;;;;;;;5069709;28;20151;-71
2021/12/11 04:25:31;;;;;;;33.63;16.15;;;;;;;;;;5068299;28;20815;-73
2021/12/11 04:27:57;;;;;;;40.17;17.42;;;;;;;;;;5068743;28;20052;-71
2021/12/11 04:30:24;;;;;;;34.33;15.25;;;;;;;;;;5069113;28;20041;-71
2021/12/11 04:32:51;;;;;;;31.00;15.35;;;;;;;;;;5069017;28;20076;-71
2021/12/11 04:35:18;;;;;;;40.78;16.45;;;;;;;;;;5069536;28;20053;-71
2021/12/11 04:37:45;;;;;;;36.40;16.83;;;;;;;;;;5069208;28;20059;-71
2021/12/11 04:40:21;;;;;;;37.00;16.80;;;;;;;;;;5069169;28;20053;-71
2021/12/11 04:42:58;;;;;;;36.10;17.05;;;;;;;;;;5069016;28;20069;-71
2021/12/11 04:45:33;;;;;;;33.35;16.50;;;;;;;;;;5068672;28;20569;-71
2021/12/11 04:48:09;;;;;;;39.08;17.42;;;;;;;;;;5068482;28;20479;-71
2021/12/11 04:50:55;;;;;;;40.33;17.42;;;;;;;;;;5069118;28;20062;-72
2021/12/11 04:53:40;;;;;;;45.60;17.88;;;;;;;;;;5068392;28;20111;-71
2021/12/11 04:56:37;;;;;;;43.10;18.17;;;;;;;;;;5069269;28;20063;-72
2021/12/11 05:02:11;;;;;;;38.20;17.55;;;;;;;;;;5069693;28;20052;-72
2021/12/11 05:07:35;;;;;;;41.95;18.55;;;;;;;;;;5068777;28;20052;-71
2021/12/11 05:10:00;;;;;;;46.65;18.73;;;;;;;;;;5068327;28;20429;-71
2021/12/11 05:12:36;;;;;;;37.85;17.25;;;;;;;;;;5069020;28;20049;-72
2021/12/11 05:15:08;;;;;;;42.08;17.80;;;;;;;;;;5068809;28;20064;-71
2021/12/11 05:17:34;;;;;;;47.00;19.23;;;;;;;;;;5068297;28;20079;-72
2021/12/11 05:20:01;;;;;;;45.67;18.40;;;;;;;;;;5068030;28;20045;-72
2021/12/11 05:22:27;;;;;;;44.00;18.65;;;;;;;;;;5068906;28;20140;-73
2021/12/11 05:24:54;;;;;;;50.05;19.60;;;;;;;;;;5068369;28;20056;-72
2021/12/11 05:27:21;;;;;;;50.53;20.17;;;;;;;;;;5068770;28;20064;-72
2021/12/11 05:29:48;;;;;;;55.60;21.17;;;;;;;;;;5068391;28;20153;-72
2021/12/11 05:32:16;;;;;;;58.42;22.30;;;;;;;;;;5068653;28;20059;-72
2021/12/11 05:34:42;;;;;;;55.75;21.40;;;;;;;;;;5068070;28;20140;-73
2021/12/11 05:37:09;;;;;;;59.85;21.55;;;;;;;;;;5068116;28;20143;-74
2021/12/11 05:39:35;;;;;;;68.50;23.40;;;;;;;;;;5067921;28;20053;-72
2021/12/11 05:42:03;;;;;;;59.78;22.92;;;;;;;;;;5068178;28;20140;-72
2021/12/11 05:44:29;;;;;;;57.95;21.52;;;;;;;;;;5067446;28;20057;-73
2021/12/11 05:46:55;;;;;;;56.88;21.73;;;;;;;;;;5068001;28;20049;-71
2021/12/11 05:49:22;;;;;;;63.92;22.13;;;;;;;;;;5068360;28;20056;-72
2021/12/11 05:51:49;;;;;;;59.65;22.13;;;;;;;;;;5068103;28;20053;-72
2021/12/11 05:54:18;;;;;;;61.15;24.05;;;;;;;;;;5068095;28;20049;-72
2021/12/11 05:56:44;;;;;;;65.28;23.45;;;;;;;;;;5068140;28;20059;-72
2021/12/11 05:59:12;;;;;;;71.22;24.25;;;;;;;;;;5066463;28;20051;-71
2021/12/11 06:01:38;;;;;;;73.55;24.38;;;;;;;;;;5067937;28;20059;-71
2021/12/11 06:04:10;;;;;;;74.88;23.90;;;;;;;;;;5067621;28;20590;-74
2021/12/11 06:06:37;;;;;;;70.25;22.67;;;;;;;;;;5067656;28;20049;-73
2021/12/11 06:09:05;;;;;;;75.20;24.65;;;;;;;;;;5067034;28;20557;-71
2021/12/11 06:11:31;;;;;;;72.40;23.50;;;;;;;;;;5067812;28;20053;-72
2021/12/11 06:13:58;;;;;;;70.75;24.10;;;;;;;;;;5067789;28;20061;-70
2021/12/11 06:16:24;;;;;;;66.80;23.35;;;;;;;;;;5067311;28;20079;-71
2021/12/11 06:18:51;;;;;;;88.95;24.75;;;;;;;;;;5068184;28;20064;-71
2021/12/11 06:21:17;;;;;;;74.72;24.67;;;;;;;;;;5068007;28;20053;-71
2021/12/11 06:23:43;;;;;;;79.70;24.77;;;;;;;;;;5067435;28;20865;-70
2021/12/11 06:26:10;;;;;;;70.30;23.27;;;;;;;;;;5068035;28;20582;-70
2021/12/11 06:28:37;;;;;;;69.13;23.67;;;;;;;;;;5066894;28;20059;-71
2021/12/11 06:31:03;;;;;;;76.47;24.55;;;;;;;;;;5068030;28;20484;-70
2021/12/11 06:33:31;;;;;;;72.22;22.55;;;;;;;;;;5066851;28;20085;-71
2021/12/11 06:36:00;;;;;;;101.20;27.80;;;;;;;;;;5067269;28;20903;-70
2021/12/11 06:38:29;;;;;;;90.40;26.65;;;;;;;;;;5067447;28;20569;-70
2021/12/11 06:40:56;;;;;;;87.90;25.05;;;;;;;;;;5067692;28;20537;-70
2021/12/11 06:43:23;;;;;;;98.45;26.52;;;;;;;;;;5066942;28;20060;-71
2021/12/11 06:45:49;;;;;;;91.60;27.13;;;;;;;;;;5066914;28;20518;-70
2021/12/11 06:48:16;;;;;;;103.03;27.50;;;;;;;;;;5067802;28;20057;-70
2021/12/11 06:50:43;;;;;;;92.43;28.15;;;;;;;;;;5067465;28;20583;-70
2021/12/11 06:53:14;;;;;;;84.78;26.60;;;;;;;;;;5066625;28;20514;-71
2021/12/11 06:55:41;;;;;;;101.05;27.50;;;;;;;;;;5067696;28;20049;-70
2021/12/11 06:58:07;;;;;;;104.07;29.42;;;;;;;;;;5066726;28;20049;-70
2021/12/11 07:00:34;;;;;;;102.80;28.85;;;;;;;;;;5066408;28;20053;-70
2021/12/11 07:03:00;;;;;;;101.47;28.60;;;;;;;;;;5066777;28;20057;-70
2021/12/11 07:05:27;;;;;;;109.45;28.80;;;;;;;;;;5066950;28;20053;-71
2021/12/11 07:07:53;;;;;;;97.65;28.33;;;;;;;;;;5067016;28;20549;-69
2021/12/11 07:10:20;;;;;;;104.28;28.88;;;;;;;;;;5068588;28;20059;-71
2021/12/11 07:12:48;;;;;;;73.40;25.20;;;;;;;;;;5070313;28;20053;-70
2021/12/11 07:15:14;;;;;;;73.00;25.85;;;;;;;;;;5070711;28;20499;-70
2021/12/11 07:17:41;;;;;;;108.28;28.10;;;;;;;;;;5069985;28;20060;-70
2021/12/11 07:20:08;;;;;;;104.60;27.13;;;;;;;;;;5070876;28;20059;-70
2021/12/11 07:22:36;;;;;;;85.40;26.40;;;;;;;;;;5069321;28;20061;-70
2021/12/11 07:25:06;;;;;;;74.80;24.15;;;;;;;;;;5070481;28;20052;-71
2021/12/11 07:27:34;;;;;;;98.20;25.65;;;;;;;;;;5070344;28;20510;-70
2021/12/11 07:30:00;;;;;;;95.82;26.30;;;;;;;;;;5069965;28;20059;-70
2021/12/11 07:32:26;;;;;;;89.03;24.77;;;;;;;;;;5069875;28;20866;-70
2021/12/11 07:34:53;;;;;;;107.55;26.08;;;;;;;;;;5069829;28;20057;-70
2021/12/11 07:37:19;;;;;;;89.93;24.42;;;;;;;;;;5070072;28;20458;-70
2021/12/11 07:39:45;;;;;;;87.57;25.10;;;;;;;;;;5070739;28;20541;-71
2021/12/11 07:42:12;;;;;;;85.95;24.73;;;;;;;;;;5069873;28;20525;-70
2021/12/11 07:44:38;;;;;;;96.88;26.80;;;;;;;;;;5069864;28;20059;-70
2021/12/11 07:47:06;;;;;;;107.95;25.92;;;;;;;;;;5068826;28;20053;-70
2021/12/11 07:49:33;;;;;;;81.13;25.25;;;;;;;;;;5069658;28;20055;-70
2021/12/11 07:51:59;;;;;;;84.28;26.30;;;;;;;;;;5070098;28;20067;-71
2021/12/11 07:54:26;;;;;;;82.05;25.08;;;;;;;;;;5069957;28;20053;-71
2021/12/11 07:56:54;;;;;;;64.85;22.73;;;;;;;;;;5069953;28;20057;-71
2021/12/11 07:59:20;;;;;;;72.97;24.63;;;;;;;;;;5069730;28;20045;-71
2021/12/11 08:01:49;;;;;;;80.43;25.42;;;;;;;;;;5069712;28;20072;-70
2021/12/11 08:04:15;;;;;;;;;;;;;;;;;;5070691;28;20060;-70
2021/12/11 08:06:42;;;;;;;69.97;22.88;;;;;;;;;;5068636;28;43353;-71
2021/12/11 08:09:10;;;;;;;72.38;24.38;;;;;;;;;;5069629;28;20061;-71
2021/12/11 08:11:37;;;;;;;71.95;24.60;;;;;;;;;;5069005;28;20081;-71
2021/12/11 08:14:04;;;;;;;72.53;23.38;;;;;;;;;;5069600;28;20511;-71
2021/12/11 08:16:35;;;;;;;74.65;26.27;;;;;;;;;;5069702;28;20063;-70
2021/12/11 08:19:03;;;;;;;75.90;24.92;;;;;;;;;;5069737;28;20063;-73
2021/12/11 08:21:29;;;;;;;95.87;25.50;;;;;;;;;;5068290;28;20049;-71
2021/12/11 08:23:57;;;;;;;75.45;25.05;;;;;;;;;;5069514;28;20049;-72
2021/12/11 08:26:25;;;;;;;78.70;24.00;;;;;;;;;;5069945;28;20053;-72
2021/12/11 08:28:52;;;;;;;84.00;25.85;;;;;;;;;;5068904;28;20111;-71
2021/12/11 08:31:20;;;;;;;79.28;25.13;;;;;;;;;;5070061;28;20156;-72
2021/12/11 08:33:47;;;;;;;82.50;24.65;;;;;;;;;;5068871;28;20541;-71
2021/12/11 08:36:14;;;;;;;69.72;24.08;;;;;;;;;;5068867;28;20174;-71
2021/12/11 08:38:41;;;;;;;75.10;24.55;;;;;;;;;;5069556;28;20083;-71
2021/12/11 08:41:08;;;;;;;71.22;24.63;;;;;;;;;;5068737;28;20053;-71
2021/12/11 08:43:35;;;;;;;79.57;25.25;;;;;;;;;;5069751;28;20057;-72
2021/12/11 08:48:37;;;;;;;65.82;23.60;;;;;;;;;;5069160;28;20567;-72
2021/12/11 08:51:10;;;;;;;68.40;25.35;;;;;;;;;;5068455;28;20052;-72
2021/12/11 08:53:37;;;;;;;69.32;25.83;;;;;;;;;;5069265;28;20052;-73
2021/12/11 08:56:07;;;;;;;107.43;28.98;;;;;;;;;;5068811;28;20111;-72
2021/12/11 08:58:33;;;;;;;90.32;28.25;;;;;;;;;;5068611;28;20493;-72
2021/12/11 09:01:09;;;;;;;65.68;24.33;;;;;;;;;;5068894;28;20076;-71
2021/12/11 09:03:41;;;;;;;87.38;26.10;;;;;;;;;;5068581;28;20629;-71
2021/12/11 09:06:10;;;;;;;124.40;27.08;;;;;;;;;;5068587;28;20060;-71
2021/12/11 09:08:37;;;;;;;;;;;;;;;;;;5069382;28;20048;-72
2021/12/11 09:11:08;;;;;;;166.93;28.73;;;;;;;;;;5068215;28;44693;-72
2021/12/11 09:13:38;;;;;;;194.90;31.40;;;;;;;;;;5067811;28;20053;-73
2021/12/11 09:16:10;;;;;;;277.38;35.53;;;;;;;;;;5068537;28;20061;-72
2021/12/11 09:18:47;;;;;;;197.80;27.80;;;;;;;;;;5068352;28;20144;-71
2021/12/11 09:21:15;;;;;;;315.75;33.20;;;;;;;;;;5068010;28;20435;-71
2021/12/11 09:23:44;;;;;;;219.45;31.67;;;;;;;;;;5068690;28;20061;-72
2021/12/11 09:26:20;;;;;;;169.57;32.70;;;;;;;;;;5067702;28;20049;-71
2021/12/11 09:28:49;;;;;;;194.13;29.63;;;;;;;;;;5068341;28;20509;-71
2021/12/11 09:31:18;;;;;;;205.02;31.90;;;;;;;;;;5068842;28;20048;-72
2021/12/11 09:34:11;;;;;;;180.85;29.65;;;;;;;;;;5067824;28;20052;-71
2021/12/11 09:36:41;;;;;;;234.70;32.65;;;;;;;;;;5067502;28;20057;-72
2021/12/11 09:39:10;;;;;;;160.40;30.15;;;;;;;;;;5068101;28;20139;-72
2021/12/11 09:41:36;;;;;;;168.40;29.75;;;;;;;;;;5068119;28;20531;-70
2021/12/11 09:44:33;;;;;;;258.50;31.95;;;;;;;;;;5068659;28;20049;-71
2021/12/11 09:47:03;;;;;;;100.80;25.67;;;;;;;;;;5067402;28;20102;-72
2021/12/11 09:49:31;;;;;;;158.73;28.33;;;;;;;;;;5068071;28;20056;-71
2021/12/11 09:52:14;;;;;;;;;;;;;;;;;;5067250;28;20605;-70
2021/12/11 09:54:42;;;;;;;133.85;26.52;;;;;;;;;;5067637;28;44814;-71
2021/12/11 09:57:13;;;;;;;142.73;27.83;;;;;;;;;;5067827;28;20053;-71
2021/12/11 09:59:41;;;;;;;110.40;26.38;;;;;;;;;;5067177;28;20266;-70
2021/12/11 10:02:09;;;;;;;95.90;25.27;;;;;;;;;;5067846;28;20761;-72
2021/12/11 10:04:46;;;;;;;121.72;28.13;;;;;;;;;;5068457;28;20420;-71
2021/12/11 10:09:51;;;;;;;102.53;27.00;;;;;;;;;;5068087;28;20052;-71
2021/12/11 10:12:22;;;;;;;142.60;27.35;;;;;;;;;;5066606;28;20057;-72
2021/12/11 10:14:54;;;;;;;107.60;25.70;;;;;;;;;;5067966;28;20152;-71
2021/12/11 10:17:27;;;;;;;115.90;25.98;;;;;;;;;;5067103;28;20080;-70
2021/12/11 10:19:55;;;;;;;124.50;26.10;;;;;;;;;;5068257;28;20928;-70
2021/12/11 10:22:21;;;;;;;;;;;;;;;;;;5067651;28;20049;-71
2021/12/11 10:24:51;;;;;;;198.85;29.63;;;;;;;;;;5067022;28;43332;-71
2021/12/11 10:27:20;;;;;;;129.50;26.98;;;;;;;;;;5067987;28;20059;-72
2021/12/11 10:29:46;;;;;;;157.38;29.10;;;;;;;;;;5067252;28;20518;-70
2021/12/11 10:32:16;;;;;;;186.68;29.23;;;;;;;;;;5067950;28;20542;-71
2021/12/11 10:34:44;;;;;;;207.02;31.85;;;;;;;;;;5067440;28;20056;-72
2021/12/11 10:37:16;;;;;;;276.58;32.20;;;;;;;;;;5067597;28;20060;-72
2021/12/11 10:39:44;;;;;;;193.25;29.42;;;;;;;;;;5068138;28;20052;-72
2021/12/11 10:42:12;;;;;;;136.20;28.10;;;;;;;;;;5066549;28;20052;-71
2021/12/11 10:44:43;;;;;;;307.15;35.65;;;;;;;;;;5067693;28;20060;-72
2021/12/11 10:47:11;;;;;;;149.10;27.88;;;;;;;;;;5069837;28;20049;-71
2021/12/11 10:49:39;;;;;;;100.72;26.98;;;;;;;;;;5070931;28;20059;-71
2021/12/11 10:52:10;;;;;;;133.18;30.08;;;;;;;;;;5070962;28;20084;-71
2021/12/11 10:54:37;;;;;;;128.68;30.55;;;;;;;;;;5071034;28;20147;-71
2021/12/11 10:57:03;;;;;;;130.13;29.80;;;;;;;;;;5070147;28;20053;-71
2021/12/11 10:59:31;;;;;;;75.85;27.38;;;;;;;;;;5070650;28;20053;-70
2021/12/11 11:01:59;;;;;;;72.93;28.30;;;;;;;;;;5069877;28;20053;-71
2021/12/11 11:04:28;;;;;;;71.60;28.02;;;;;;;;;;5071051;28;20053;-70
2021/12/11 11:06:55;;;;;;;85.75;29.50;;;;;;;;;;5070568;28;20048;-71
2021/12/11 11:09:22;;;;;;;63.75;27.13;;;;;;;;;;5070133;28;20043;-71
2021/12/11 11:11:49;;;;;;;70.70;28.55;;;;;;;;;;5070666;28;20529;-70
2021/12/11 11:14:17;;;;;;;68.80;27.23;;;;;;;;;;5070955;28;20053;-70
2021/12/11 11:16:44;;;;;;;72.88;27.45;;;;;;;;;;5070476;28;20521;-70
2021/12/11 11:19:11;;;;;;;66.45;27.95;;;;;;;;;;5071145;28;20092;-70
2021/12/11 11:21:40;;;;;;;65.25;26.55;;;;;;;;;;5070334;28;20053;-71
2021/12/11 11:24:07;;;;;;;52.50;23.90;;;;;;;;;;5071373;28;20075;-70
2021/12/11 11:26:35;;;;;;;69.28;26.30;;;;;;;;;;5070495;28;20085;-71
2021/12/11 11:29:02;;;;;;;61.07;27.43;;;;;;;;;;5070659;28;20053;-71
2021/12/11 11:31:34;;;;;;;66.22;26.52;;;;;;;;;;5068892;28;20269;-72
2021/12/11 11:34:02;;;;;;;68.60;28.40;;;;;;;;;;5070466;28;20133;-71
2021/12/11 11:36:30;;;;;;;53.63;26.55;;;;;;;;;;5070427;28;20049;-72
2021/12/11 11:38:58;;;;;;;57.15;25.40;;;;;;;;;;5070614;28;20061;-71
2021/12/11 11:41:37;;;;;;;54.30;23.67;;;;;;;;;;5069832;28;20611;-71
2021/12/11 11:44:04;;;;;;;53.70;22.60;;;;;;;;;;5070332;28;20131;-72
2021/12/11 11:46:30;;;;;;;43.88;23.52;;;;;;;;;;5070537;28;20057;-70
2021/12/11 11:48:59;;;;;;;45.35;21.55;;;;;;;;;;5070183;28;20045;-71
2021/12/11 11:51:45;;;;;;;51.78;23.63;;;;;;;;;;5070299;28;20057;-72
2021/12/11 11:54:13;;;;;;;48.53;22.40;;;;;;;;;;5070230;28;20045;-72
2021/12/11 11:56:41;;;;;;;44.43;21.27;;;;;;;;;;5067152;28;20080;-73
2021/12/11 11:59:08;;;;;;;44.00;21.05;;;;;;;;;;5069973;28;20075;-71
2021/12/11 12:01:44;;;;;;;44.13;20.90;;;;;;;;;;5069973;28;20056;-71
2021/12/11 12:04:15;;;;;;;46.05;20.88;;;;;;;;;;5070030;28;20055;-72
2021/12/11 12:06:46;;;;;;;41.72;19.25;;;;;;;;;;5070087;28;20059;-72
2021/12/11 12:09:13;;;;;;;32.58;17.67;;;;;;;;;;5069467;28;20052;-72
2021/12/11 12:11:39;;;;;;;32.75;17.77;;;;;;;;;;5069489;28;20063;-71
2021/12/11 12:14:13;;;;;;;41.03;18.15;;;;;;;;;;5069190;28;20500;-72
2021/12/11 12:16:40;;;;;;;31.80;15.93;;;;;;;;;;5069387;28;20136;-71
2021/12/11 12:19:06;;;;;;;34.65;16.38;;;;;;;;;;5069548;28;20088;-71
2021/12/11 12:21:34;;;;;;;34.83;15.77;;;;;;;;;;5068365;28;20084;-71
2021/12/11 12:24:01;;;;;;;33.95;16.85;;;;;;;;;;5070038;28;20049;-71
2021/12/11 12:26:29;;;;;;;28.17;14.27;;;;;;;;;;5068736;28;20065;-71
2021/12/11 12:28:56;;;;;;;34.65;15.68;;;;;;;;;;5070473;28;20084;-71
2021/12/11 12:31:25;;;;;;;35.72;16.85;;;;;;;;;;5069388;28;20813;-70
2021/12/11 12:33:52;;;;;;;28.33;14.77;;;;;;;;;;5068913;28;20054;-71
2021/12/11 12:36:18;;;;;;;34.88;16.17;;;;;;;;;;5069388;28;20083;-70
2021/12/11 12:38:45;;;;;;;31.58;16.10;;;;;;;;;;5068152;28;20434;-70
2021/12/11 12:41:15;;;;;;;33.83;17.13;;;;;;;;;;5068808;28;20079;-70
2021/12/11 12:46:20;;;;;;;35.38;17.20;;;;;;;;;;5068958;28;20061;-69
2021/12/11 12:48:46;;;;;;;34.88;16.52;;;;;;;;;;5069067;28;20053;-70
2021/12/11 12:51:14;;;;;;;34.30;16.90;;;;;;;;;;5069282;28;20062;-69
2021/12/11 12:53:44;;;;;;;32.30;16.50;;;;;;;;;;5069255;28;20063;-70
2021/12/11 12:56:11;;;;;;;33.95;16.40;;;;;;;;;;5068934;28;20052;-70
2021/12/11 12:59:17;;;;;;;34.70;15.75;;;;;;;;;;5069326;28;20057;-70
2021/12/11 13:01:46;;;;;;;28.10;14.30;;;;;;;;;;5068604;28;20084;-71
2021/12/11 13:04:15;;;;;;;31.40;15.10;;;;;;;;;;5068803;28;20545;-71
2021/12/11 13:06:44;;;;;;;31.58;16.00;;;;;;;;;;5068450;28;20067;-70
2021/12/11 13:09:14;;;;;;;34.72;16.80;;;;;;;;;;5067856;28;20052;-70
2021/12/11 13:12:00;;;;;;;34.40;15.85;;;;;;;;;;5067579;28;20114;-71
2021/12/11 13:14:28;;;;;;;40.22;17.55;;;;;;;;;;5068099;28;20530;-71
2021/12/11 13:16:57;;;;;;;30.13;14.55;;;;;;;;;;5068035;28;20052;-71
2021/12/11 13:19:31;;;;;;;34.45;15.27;;;;;;;;;;5068282;28;20144;-71
2021/12/11 13:21:59;;;;;;;29.80;14.25;;;;;;;;;;5069100;28;20511;-72
2021/12/11 13:24:26;;;;;;;30.33;14.30;;;;;;;;;;5068935;28;20045;-72
2021/12/11 13:26:57;;;;;;;24.73;13.20;;;;;;;;;;5067885;28;20083;-71
2021/12/11 13:29:24;;;;;;;27.77;15.10;;;;;;;;;;5068137;28;20053;-70
2021/12/11 13:32:03;;;;;;;39.35;20.33;;;;;;;;;;5067058;28;20045;-71
2021/12/11 13:34:31;;;;;;;41.95;21.88;;;;;;;;;;5067402;28;20053;-72
2021/12/11 13:36:59;;;;;;;43.35;22.70;;;;;;;;;;5067925;28;20059;-72
2021/12/11 13:39:25;;;;;;;40.13;21.50;;;;;;;;;;5067739;28;20060;-71
2021/12/11 13:41:59;;;;;;;43.00;21.27;;;;;;;;;;5067795;28;20140;-72
2021/12/11 13:44:28;;;;;;;40.63;21.00;;;;;;;;;;5068435;28;20053;-71
2021/12/11 13:46:57;;;;;;;41.70;20.13;;;;;;;;;;5068092;28;20620;-72
2021/12/11 13:49:24;;;;;;;;;;;;;;;;;;5068607;28;20052;-71
2021/12/11 13:51:51;;;;;;;42.85;21.10;;;;;;;;;;5067174;28;45497;-71
2021/12/11 13:54:18;;;;;;;42.25;20.00;;;;;;;;;;5066908;28;20057;-71
2021/12/11 13:56:47;;;;;;;41.92;20.75;;;;;;;;;;5068391;28;20053;-72
2021/12/11 13:59:14;;;;;;;41.17;21.25;;;;;;;;;;5067873;28;20065;-73
2021/12/11 14:01:42;;;;;;;37.47;20.27;;;;;;;;;;5067866;28;20139;-72
2021/12/11 14:04:12;;;;;;;44.45;21.83;;;;;;;;;;5067784;28;20148;-73
2021/12/11 14:06:49;;;;;;;41.53;20.25;;;;;;;;;;5068069;28;20515;-70
2021/12/11 14:09:21;;;;;;;47.95;22.13;;;;;;;;;;5067347;28;20048;-71
2021/12/11 14:11:48;;;;;;;46.50;21.98;;;;;;;;;;5067528;28;20049;-69
2021/12/11 14:14:15;;;;;;;50.53;21.00;;;;;;;;;;5067948;28;20498;-70
2021/12/11 14:16:42;;;;;;;39.03;20.43;;;;;;;;;;5067540;28;20132;-73
2021/12/11 14:19:10;;;;;;;40.65;20.77;;;;;;;;;;5067321;28;20067;-70
2021/12/11 14:21:37;;;;;;;41.65;19.20;;;;;;;;;;5065601;28;20067;-69
2021/12/11 14:24:05;;;;;;;54.65;20.23;;;;;;;;;;5067938;28;20139;-71
2021/12/11 14:26:32;;;;;;;;;;;;;;;;;;5067374;28;20957;-69
2021/12/11 14:28:59;;;;;;;32.45;12.25;;;;;;;;;;5066295;28;43127;-70
2021/12/11 14:31:26;;;;;;;24.73;9.55;;;;;;;;;;5067907;28;20137;-70
2021/12/11 14:33:53;;;;;;;25.80;8.00;;;;;;;;;;5066707;28;20432;-71
2021/12/11 14:36:21;;;;;;;22.13;6.88;;;;;;;;;;5067489;28;20537;-71
2021/12/11 14:38:48;;;;;;;24.80;7.10;;;;;;;;;;5068122;28;20051;-71
2021/12/11 14:41:15;;;;;;;15.30;5.25;;;;;;;;;;5067371;28;20484;-70
2021/12/11 14:43:42;;;;;;;23.42;6.50;;;;;;;;;;5067005;28;20541;-70
2021/12/11 14:46:09;;;;;;;15.75;4.90;;;;;;;;;;5067827;28;20063;-70